sensor_id;sensor_type;location;lat;lon;timestamp;P1;durP1;ratioP1;P2;durP2;ratioP2
79241;SDS011;68670;48.720;9.118;2023-10-08T00:00:52;6.63;;;2.30;;
79241;SDS011;68670;48.720;9.118;2023-10-08T00:03:22;5.90;;;2.40;;
79241;SDS011;68670;48.720;9.118;2023-10-08T00:05:47;8.33;;;2.17;;
79241;SDS011;68670;48.720;9.118;2023-10-08T00:08:23;6.97;;;2.08;;
79241;SDS011;68670;48.720;9.118;2023-10-08T00:10:55;6.40;;;1.95;;
79241;SDS011;68670;48.720;9.118;2023-10-08T00:13:21;5.82;;;1.77;;
79241;SDS011;68670;48.720;9.118;2023-10-08T00:15:50;7.65;;;2.33;;
79241;SDS011;68670;48.720;9.118;2023-10-08T00:18:22;4.88;;;2.28;;
79241;SDS011;68670;48.720;9.118;2023-10-08T00:20:53;5.40;;;1.88;;
79241;SDS011;68670;48.720;9.118;2023-10-08T00:23:37;6.05;;;2.00;;
79241;SDS011;68670;48.720;9.118;2023-10-08T00:26:09;5.63;;;2.33;;
79241;SDS011;68670;48.720;9.118;2023-10-08T00:28:34;6.95;;;1.90;;
79241;SDS011;68670;48.720;9.118;2023-10-08T00:31:03;5.55;;;2.00;;
79241;SDS011;68670;48.720;9.118;2023-10-08T00:33:36;6.53;;;2.15;;
79241;SDS011;68670;48.720;9.118;2023-10-08T00:36:15;6.13;;;1.73;;
79241;SDS011;68670;48.720;9.118;2023-10-08T00:38:46;5.88;;;1.92;;
79241;SDS011;68670;48.720;9.118;2023-10-08T00:41:17;4.97;;;1.60;;
79241;SDS011;68670;48.720;9.118;2023-10-08T00:43:53;3.80;;;1.58;;
79241;SDS011;68670;48.720;9.118;2023-10-08T00:46:20;5.10;;;1.88;;
79241;SDS011;68670;48.720;9.118;2023-10-08T00:48:52;6.22;;;1.90;;
79241;SDS011;68670;48.720;9.118;2023-10-08T00:51:19;7.03;;;1.95;;
79241;SDS011;68670;48.720;9.118;2023-10-08T00:54:05;5.10;;;2.00;;
79241;SDS011;68670;48.720;9.118;2023-10-08T00:56:38;4.53;;;1.70;;
79241;SDS011;68670;48.720;9.118;2023-10-08T00:59:15;7.20;;;1.67;;
79241;SDS011;68670;48.720;9.118;2023-10-08T01:01:44;7.47;;;2.00;;
79241;SDS011;68670;48.720;9.118;2023-10-08T01:04:16;6.10;;;2.00;;
79241;SDS011;68670;48.720;9.118;2023-10-08T01:06:48;8.13;;;2.33;;
79241;SDS011;68670;48.720;9.118;2023-10-08T01:09:20;4.25;;;1.80;;
79241;SDS011;68670;48.720;9.118;2023-10-08T01:12:10;4.78;;;1.90;;
79241;SDS011;68670;48.720;9.118;2023-10-08T01:15:00;4.82;;;1.92;;
79241;SDS011;68670;48.720;9.118;2023-10-08T01:17:49;7.22;;;2.00;;
79241;SDS011;68670;48.720;9.118;2023-10-08T01:20:29;6.88;;;2.10;;
79241;SDS011;68670;48.720;9.118;2023-10-08T01:23:17;5.75;;;1.90;;
79241;SDS011;68670;48.720;9.118;2023-10-08T01:25:47;7.10;;;2.03;;
79241;SDS011;68670;48.720;9.118;2023-10-08T01:28:22;6.07;;;2.17;;
79241;SDS011;68670;48.720;9.118;2023-10-08T01:30:54;4.50;;;1.92;;
79241;SDS011;68670;48.720;9.118;2023-10-08T01:33:22;5.13;;;1.83;;
79241;SDS011;68670;48.720;9.118;2023-10-08T01:35:51;5.85;;;1.80;;
79241;SDS011;68670;48.720;9.118;2023-10-08T01:38:18;5.50;;;2.00;;
79241;SDS011;68670;48.720;9.118;2023-10-08T01:40:48;4.82;;;1.92;;
79241;SDS011;68670;48.720;9.118;2023-10-08T01:43:19;5.32;;;2.17;;
79241;SDS011;68670;48.720;9.118;2023-10-08T01:45:46;4.82;;;1.73;;
79241;SDS011;68670;48.720;9.118;2023-10-08T01:48:16;6.95;;;2.15;;
79241;SDS011;68670;48.720;9.118;2023-10-08T01:50:47;8.15;;;2.20;;
79241;SDS011;68670;48.720;9.118;2023-10-08T01:53:13;3.75;;;1.70;;
79241;SDS011;68670;48.720;9.118;2023-10-08T01:55:41;5.60;;;1.75;;
79241;SDS011;68670;48.720;9.118;2023-10-08T01:58:22;4.95;;;1.85;;
79241;SDS011;68670;48.720;9.118;2023-10-08T02:00:48;6.88;;;1.80;;
79241;SDS011;68670;48.720;9.118;2023-10-08T02:03:17;6.47;;;1.85;;
79241;SDS011;68670;48.720;9.118;2023-10-08T02:05:50;5.10;;;1.63;;
79241;SDS011;68670;48.720;9.118;2023-10-08T02:08:18;7.45;;;2.10;;
79241;SDS011;68670;48.720;9.118;2023-10-08T02:10:44;4.68;;;1.73;;
79241;SDS011;68670;48.720;9.118;2023-10-08T02:13:13;5.78;;;1.77;;
79241;SDS011;68670;48.720;9.118;2023-10-08T02:15:43;7.85;;;2.22;;
79241;SDS011;68670;48.720;9.118;2023-10-08T02:18:09;6.45;;;2.13;;
79241;SDS011;68670;48.720;9.118;2023-10-08T02:20:38;6.70;;;2.10;;
79241;SDS011;68670;48.720;9.118;2023-10-08T02:23:05;5.40;;;1.83;;
79241;SDS011;68670;48.720;9.118;2023-10-08T02:25:30;7.20;;;2.00;;
79241;SDS011;68670;48.720;9.118;2023-10-08T02:27:56;5.68;;;2.10;;
79241;SDS011;68670;48.720;9.118;2023-10-08T02:30:22;6.00;;;2.10;;
79241;SDS011;68670;48.720;9.118;2023-10-08T02:32:48;5.57;;;2.00;;
79241;SDS011;68670;48.720;9.118;2023-10-08T02:35:14;6.93;;;2.00;;
79241;SDS011;68670;48.720;9.118;2023-10-08T02:37:40;6.43;;;2.10;;
79241;SDS011;68670;48.720;9.118;2023-10-08T02:40:06;7.25;;;2.20;;
79241;SDS011;68670;48.720;9.118;2023-10-08T02:42:47;8.10;;;2.13;;
79241;SDS011;68670;48.720;9.118;2023-10-08T02:45:15;7.07;;;2.40;;
79241;SDS011;68670;48.720;9.118;2023-10-08T02:47:41;7.30;;;2.03;;
79241;SDS011;68670;48.720;9.118;2023-10-08T02:50:12;7.38;;;2.22;;
79241;SDS011;68670;48.720;9.118;2023-10-08T02:52:41;5.82;;;2.13;;
79241;SDS011;68670;48.720;9.118;2023-10-08T02:55:09;4.70;;;1.92;;
79241;SDS011;68670;48.720;9.118;2023-10-08T02:57:48;6.80;;;1.90;;
79241;SDS011;68670;48.720;9.118;2023-10-08T03:00:15;8.77;;;1.95;;
79241;SDS011;68670;48.720;9.118;2023-10-08T03:02:46;7.15;;;1.88;;
79241;SDS011;68670;48.720;9.118;2023-10-08T03:05:12;5.32;;;1.95;;
79241;SDS011;68670;48.720;9.118;2023-10-08T03:07:42;4.75;;;1.48;;
79241;SDS011;68670;48.720;9.118;2023-10-08T03:10:08;5.60;;;2.20;;
79241;SDS011;68670;48.720;9.118;2023-10-08T03:12:56;7.40;;;1.95;;
79241;SDS011;68670;48.720;9.118;2023-10-08T03:15:21;6.83;;;2.27;;
79241;SDS011;68670;48.720;9.118;2023-10-08T03:17:58;7.03;;;1.95;;
79241;SDS011;68670;48.720;9.118;2023-10-08T03:20:36;5.75;;;1.60;;
79241;SDS011;68670;48.720;9.118;2023-10-08T03:23:05;6.80;;;1.90;;
79241;SDS011;68670;48.720;9.118;2023-10-08T03:25:54;6.43;;;1.88;;
79241;SDS011;68670;48.720;9.118;2023-10-08T03:28:25;7.07;;;2.03;;
79241;SDS011;68670;48.720;9.118;2023-10-08T03:30:54;3.97;;;1.73;;
79241;SDS011;68670;48.720;9.118;2023-10-08T03:33:49;5.22;;;1.85;;
79241;SDS011;68670;48.720;9.118;2023-10-08T03:36:16;5.60;;;1.88;;
79241;SDS011;68670;48.720;9.118;2023-10-08T03:38:59;6.63;;;1.77;;
79241;SDS011;68670;48.720;9.118;2023-10-08T03:41:43;8.20;;;2.05;;
79241;SDS011;68670;48.720;9.118;2023-10-08T03:44:31;6.43;;;1.70;;
79241;SDS011;68670;48.720;9.118;2023-10-08T03:46:56;7.40;;;2.00;;
79241;SDS011;68670;48.720;9.118;2023-10-08T03:49:27;6.45;;;1.63;;
79241;SDS011;68670;48.720;9.118;2023-10-08T03:51:58;8.50;;;2.17;;
79241;SDS011;68670;48.720;9.118;2023-10-08T03:54:25;5.70;;;1.80;;
79241;SDS011;68670;48.720;9.118;2023-10-08T03:57:00;5.55;;;2.20;;
79241;SDS011;68670;48.720;9.118;2023-10-08T03:59:31;6.47;;;2.35;;
79241;SDS011;68670;48.720;9.118;2023-10-08T04:01:59;6.40;;;1.92;;
79241;SDS011;68670;48.720;9.118;2023-10-08T04:05:01;6.97;;;2.08;;
79241;SDS011;68670;48.720;9.118;2023-10-08T04:07:52;5.93;;;1.67;;
79241;SDS011;68670;48.720;9.118;2023-10-08T04:10:23;5.72;;;1.90;;
79241;SDS011;68670;48.720;9.118;2023-10-08T04:13:06;8.50;;;2.20;;
79241;SDS011;68670;48.720;9.118;2023-10-08T04:15:40;6.35;;;1.65;;
79241;SDS011;68670;48.720;9.118;2023-10-08T04:18:11;7.75;;;1.60;;
79241;SDS011;68670;48.720;9.118;2023-10-08T04:20:39;6.72;;;1.98;;
79241;SDS011;68670;48.720;9.118;2023-10-08T04:23:10;5.60;;;1.92;;
79241;SDS011;68670;48.720;9.118;2023-10-08T04:25:38;13.25;;;1.98;;
79241;SDS011;68670;48.720;9.118;2023-10-08T04:28:06;6.10;;;1.90;;
79241;SDS011;68670;48.720;9.118;2023-10-08T04:30:40;7.13;;;2.40;;
79241;SDS011;68670;48.720;9.118;2023-10-08T04:33:09;6.45;;;1.90;;
79241;SDS011;68670;48.720;9.118;2023-10-08T04:35:38;7.93;;;2.25;;
79241;SDS011;68670;48.720;9.118;2023-10-08T04:38:13;5.32;;;1.65;;
79241;SDS011;68670;48.720;9.118;2023-10-08T04:40:46;5.82;;;2.00;;
79241;SDS011;68670;48.720;9.118;2023-10-08T04:43:20;6.93;;;2.35;;
79241;SDS011;68670;48.720;9.118;2023-10-08T04:45:56;7.05;;;2.08;;
79241;SDS011;68670;48.720;9.118;2023-10-08T04:48:34;6.93;;;2.50;;
79241;SDS011;68670;48.720;9.118;2023-10-08T04:51:01;8.35;;;2.20;;
79241;SDS011;68670;48.720;9.118;2023-10-08T04:53:29;10.93;;;1.90;;
79241;SDS011;68670;48.720;9.118;2023-10-08T04:56:02;4.93;;;1.85;;
79241;SDS011;68670;48.720;9.118;2023-10-08T04:58:41;5.25;;;1.90;;
79241;SDS011;68670;48.720;9.118;2023-10-08T05:01:07;7.25;;;2.22;;
79241;SDS011;68670;48.720;9.118;2023-10-08T05:03:55;5.38;;;1.90;;
79241;SDS011;68670;48.720;9.118;2023-10-08T05:06:23;6.55;;;1.92;;
79241;SDS011;68670;48.720;9.118;2023-10-08T05:09:15;5.57;;;2.28;;
79241;SDS011;68670;48.720;9.118;2023-10-08T05:11:44;6.68;;;1.77;;
79241;SDS011;68670;48.720;9.118;2023-10-08T05:14:20;5.93;;;2.00;;
79241;SDS011;68670;48.720;9.118;2023-10-08T05:17:13;6.55;;;1.92;;
79241;SDS011;68670;48.720;9.118;2023-10-08T05:19:41;4.80;;;1.60;;
79241;SDS011;68670;48.720;9.118;2023-10-08T05:22:14;6.72;;;1.90;;
79241;SDS011;68670;48.720;9.118;2023-10-08T05:25:04;6.20;;;1.90;;
79241;SDS011;68670;48.720;9.118;2023-10-08T05:27:36;4.65;;;1.80;;
79241;SDS011;68670;48.720;9.118;2023-10-08T05:30:06;5.70;;;1.60;;
79241;SDS011;68670;48.720;9.118;2023-10-08T05:32:56;5.20;;;1.90;;
79241;SDS011;68670;48.720;9.118;2023-10-08T05:35:41;5.88;;;1.80;;
79241;SDS011;68670;48.720;9.118;2023-10-08T05:38:11;6.97;;;1.88;;
79241;SDS011;68670;48.720;9.118;2023-10-08T05:40:56;7.20;;;1.90;;
79241;SDS011;68670;48.720;9.118;2023-10-08T05:43:27;5.38;;;1.58;;
79241;SDS011;68670;48.720;9.118;2023-10-08T05:46:09;7.55;;;1.60;;
79241;SDS011;68670;48.720;9.118;2023-10-08T05:49:04;6.82;;;1.80;;
79241;SDS011;68670;48.720;9.118;2023-10-08T05:51:33;5.38;;;2.00;;
79241;SDS011;68670;48.720;9.118;2023-10-08T05:54:15;6.82;;;1.60;;
79241;SDS011;68670;48.720;9.118;2023-10-08T05:57:25;3.67;;;1.42;;
79241;SDS011;68670;48.720;9.118;2023-10-08T06:00:03;5.90;;;2.05;;
79241;SDS011;68670;48.720;9.118;2023-10-08T06:02:29;4.63;;;1.60;;
79241;SDS011;68670;48.720;9.118;2023-10-08T06:07:40;8.73;;;1.90;;
79241;SDS011;68670;48.720;9.118;2023-10-08T06:10:17;5.45;;;1.80;;
79241;SDS011;68670;48.720;9.118;2023-10-08T06:12:59;5.63;;;1.60;;
79241;SDS011;68670;48.720;9.118;2023-10-08T06:16:10;7.32;;;1.90;;
79241;SDS011;68670;48.720;9.118;2023-10-08T06:18:38;5.53;;;1.70;;
79241;SDS011;68670;48.720;9.118;2023-10-08T06:21:05;7.43;;;1.80;;
79241;SDS011;68670;48.720;9.118;2023-10-08T06:23:35;6.10;;;1.88;;
79241;SDS011;68670;48.720;9.118;2023-10-08T06:26:04;5.32;;;1.63;;
79241;SDS011;68670;48.720;9.118;2023-10-08T06:28:34;5.45;;;1.63;;
79241;SDS011;68670;48.720;9.118;2023-10-08T06:31:00;6.07;;;1.85;;
79241;SDS011;68670;48.720;9.118;2023-10-08T06:33:28;4.88;;;1.55;;
79241;SDS011;68670;48.720;9.118;2023-10-08T06:35:59;5.93;;;2.08;;
79241;SDS011;68670;48.720;9.118;2023-10-08T06:38:34;3.58;;;1.50;;
79241;SDS011;68670;48.720;9.118;2023-10-08T06:41:00;4.38;;;1.73;;
79241;SDS011;68670;48.720;9.118;2023-10-08T06:43:33;6.85;;;2.00;;
79241;SDS011;68670;48.720;9.118;2023-10-08T06:46:01;5.32;;;1.70;;
79241;SDS011;68670;48.720;9.118;2023-10-08T06:48:27;7.07;;;1.80;;
79241;SDS011;68670;48.720;9.118;2023-10-08T06:50:54;8.85;;;2.10;;
79241;SDS011;68670;48.720;9.118;2023-10-08T06:53:22;5.65;;;1.73;;
79241;SDS011;68670;48.720;9.118;2023-10-08T06:55:52;5.15;;;1.73;;
79241;SDS011;68670;48.720;9.118;2023-10-08T06:58:24;6.60;;;1.65;;
79241;SDS011;68670;48.720;9.118;2023-10-08T07:00:52;5.93;;;1.67;;
79241;SDS011;68670;48.720;9.118;2023-10-08T07:03:23;6.90;;;1.85;;
79241;SDS011;68670;48.720;9.118;2023-10-08T07:05:50;5.82;;;2.00;;
79241;SDS011;68670;48.720;9.118;2023-10-08T07:08:21;6.18;;;1.90;;
79241;SDS011;68670;48.720;9.118;2023-10-08T07:10:48;4.22;;;1.63;;
79241;SDS011;68670;48.720;9.118;2023-10-08T07:13:17;3.28;;;1.40;;
79241;SDS011;68670;48.720;9.118;2023-10-08T07:15:44;6.32;;;1.88;;
79241;SDS011;68670;48.720;9.118;2023-10-08T07:18:10;6.20;;;1.70;;
79241;SDS011;68670;48.720;9.118;2023-10-08T07:20:39;6.95;;;1.77;;
79241;SDS011;68670;48.720;9.118;2023-10-08T07:23:06;5.22;;;1.88;;
79241;SDS011;68670;48.720;9.118;2023-10-08T07:25:43;8.32;;;1.85;;
79241;SDS011;68670;48.720;9.118;2023-10-08T07:28:12;5.68;;;1.80;;
79241;SDS011;68670;48.720;9.118;2023-10-08T07:30:38;7.70;;;1.90;;
79241;SDS011;68670;48.720;9.118;2023-10-08T07:33:09;6.53;;;1.75;;
79241;SDS011;68670;48.720;9.118;2023-10-08T07:35:45;6.20;;;1.90;;
79241;SDS011;68670;48.720;9.118;2023-10-08T07:38:19;5.57;;;1.70;;
79241;SDS011;68670;48.720;9.118;2023-10-08T07:40:46;3.40;;;1.48;;
79241;SDS011;68670;48.720;9.118;2023-10-08T07:43:11;4.47;;;1.47;;
79241;SDS011;68670;48.720;9.118;2023-10-08T07:45:40;11.75;;;2.42;;
79241;SDS011;68670;48.720;9.118;2023-10-08T07:48:10;9.60;;;1.70;;
79241;SDS011;68670;48.720;9.118;2023-10-08T07:50:40;7.57;;;1.98;;
79241;SDS011;68670;48.720;9.118;2023-10-08T07:53:08;4.82;;;1.63;;
79241;SDS011;68670;48.720;9.118;2023-10-08T07:55:43;5.28;;;1.58;;
79241;SDS011;68670;48.720;9.118;2023-10-08T07:58:14;4.93;;;1.58;;
79241;SDS011;68670;48.720;9.118;2023-10-08T08:00:40;7.35;;;1.60;;
79241;SDS011;68670;48.720;9.118;2023-10-08T08:03:16;7.38;;;1.88;;
79241;SDS011;68670;48.720;9.118;2023-10-08T08:05:44;8.30;;;1.90;;
79241;SDS011;68670;48.720;9.118;2023-10-08T08:08:11;5.07;;;1.90;;
79241;SDS011;68670;48.720;9.118;2023-10-08T08:10:42;6.63;;;1.60;;
79241;SDS011;68670;48.720;9.118;2023-10-08T08:13:10;6.28;;;1.63;;
79241;SDS011;68670;48.720;9.118;2023-10-08T08:15:36;7.13;;;2.15;;
79241;SDS011;68670;48.720;9.118;2023-10-08T08:18:07;7.13;;;1.70;;
79241;SDS011;68670;48.720;9.118;2023-10-08T08:20:36;8.93;;;1.87;;
79241;SDS011;68670;48.720;9.118;2023-10-08T08:23:11;5.65;;;2.00;;
79241;SDS011;68670;48.720;9.118;2023-10-08T08:25:41;5.07;;;1.75;;
79241;SDS011;68670;48.720;9.118;2023-10-08T08:28:14;6.88;;;1.70;;
79241;SDS011;68670;48.720;9.118;2023-10-08T08:30:44;5.30;;;1.50;;
79241;SDS011;68670;48.720;9.118;2023-10-08T08:33:15;8.02;;;2.00;;
79241;SDS011;68670;48.720;9.118;2023-10-08T08:35:47;5.75;;;1.73;;
79241;SDS011;68670;48.720;9.118;2023-10-08T08:38:22;5.47;;;1.55;;
79241;SDS011;68670;48.720;9.118;2023-10-08T08:40:48;8.88;;;1.70;;
79241;SDS011;68670;48.720;9.118;2023-10-08T08:43:14;5.20;;;1.70;;
79241;SDS011;68670;48.720;9.118;2023-10-08T08:45:41;8.80;;;3.35;;
79241;SDS011;68670;48.720;9.118;2023-10-08T08:48:10;7.90;;;2.72;;
79241;SDS011;68670;48.720;9.118;2023-10-08T08:50:37;5.05;;;1.90;;
79241;SDS011;68670;48.720;9.118;2023-10-08T08:53:03;5.72;;;1.52;;
79241;SDS011;68670;48.720;9.118;2023-10-08T08:55:29;7.53;;;1.92;;
79241;SDS011;68670;48.720;9.118;2023-10-08T08:57:57;5.32;;;1.70;;
79241;SDS011;68670;48.720;9.118;2023-10-08T09:00:29;6.80;;;1.83;;
79241;SDS011;68670;48.720;9.118;2023-10-08T09:02:57;12.52;;;2.05;;
79241;SDS011;68670;48.720;9.118;2023-10-08T09:05:23;11.02;;;2.10;;
79241;SDS011;68670;48.720;9.118;2023-10-08T09:07:56;7.30;;;2.03;;
79241;SDS011;68670;48.720;9.118;2023-10-08T09:10:23;6.07;;;1.90;;
79241;SDS011;68670;48.720;9.118;2023-10-08T09:12:54;6.00;;;1.98;;
79241;SDS011;68670;48.720;9.118;2023-10-08T09:15:26;4.57;;;1.90;;
79241;SDS011;68670;48.720;9.118;2023-10-08T09:18:00;14.88;;;2.80;;
79241;SDS011;68670;48.720;9.118;2023-10-08T09:20:25;6.10;;;2.03;;
79241;SDS011;68670;48.720;9.118;2023-10-08T09:23:05;6.03;;;2.22;;
79241;SDS011;68670;48.720;9.118;2023-10-08T09:25:43;5.38;;;1.90;;
79241;SDS011;68670;48.720;9.118;2023-10-08T09:28:14;4.18;;;1.67;;
79241;SDS011;68670;48.720;9.118;2023-10-08T09:30:42;7.95;;;2.00;;
79241;SDS011;68670;48.720;9.118;2023-10-08T09:33:10;7.38;;;2.03;;
79241;SDS011;68670;48.720;9.118;2023-10-08T09:35:37;4.05;;;2.17;;
79241;SDS011;68670;48.720;9.118;2023-10-08T09:38:03;11.30;;;3.10;;
79241;SDS011;68670;48.720;9.118;2023-10-08T09:40:29;7.15;;;1.80;;
79241;SDS011;68670;48.720;9.118;2023-10-08T09:42:57;8.38;;;3.08;;
79241;SDS011;68670;48.720;9.118;2023-10-08T09:45:23;9.70;;;3.05;;
79241;SDS011;68670;48.720;9.118;2023-10-08T09:47:54;7.80;;;2.13;;
79241;SDS011;68670;48.720;9.118;2023-10-08T09:50:31;4.95;;;1.58;;
79241;SDS011;68670;48.720;9.118;2023-10-08T09:53:11;9.25;;;2.20;;
79241;SDS011;68670;48.720;9.118;2023-10-08T09:55:54;5.88;;;2.17;;
79241;SDS011;68670;48.720;9.118;2023-10-08T09:58:24;6.82;;;1.75;;
79241;SDS011;68670;48.720;9.118;2023-10-08T10:00:51;5.47;;;1.83;;
79241;SDS011;68670;48.720;9.118;2023-10-08T10:03:19;6.10;;;2.08;;
79241;SDS011;68670;48.720;9.118;2023-10-08T10:05:48;6.28;;;2.15;;
79241;SDS011;68670;48.720;9.118;2023-10-08T10:08:18;6.78;;;1.85;;
79241;SDS011;68670;48.720;9.118;2023-10-08T10:10:45;7.32;;;1.80;;
79241;SDS011;68670;48.720;9.118;2023-10-08T10:13:13;6.22;;;1.85;;
79241;SDS011;68670;48.720;9.118;2023-10-08T10:15:41;6.63;;;1.88;;
79241;SDS011;68670;48.720;9.118;2023-10-08T10:18:08;4.85;;;1.90;;
79241;SDS011;68670;48.720;9.118;2023-10-08T10:20:41;7.38;;;2.00;;
79241;SDS011;68670;48.720;9.118;2023-10-08T10:23:34;9.93;;;2.25;;
79241;SDS011;68670;48.720;9.118;2023-10-08T10:26:20;7.32;;;2.10;;
79241;SDS011;68670;48.720;9.118;2023-10-08T10:31:32;7.30;;;2.15;;
79241;SDS011;68670;48.720;9.118;2023-10-08T10:34:07;9.55;;;2.67;;
79241;SDS011;68670;48.720;9.118;2023-10-08T10:36:35;7.43;;;2.17;;
79241;SDS011;68670;48.720;9.118;2023-10-08T10:39:01;8.65;;;2.20;;
79241;SDS011;68670;48.720;9.118;2023-10-08T10:41:48;6.45;;;2.22;;
79241;SDS011;68670;48.720;9.118;2023-10-08T10:44:16;6.75;;;2.05;;
79241;SDS011;68670;48.720;9.118;2023-10-08T10:46:42;8.75;;;2.05;;
79241;SDS011;68670;48.720;9.118;2023-10-08T10:49:08;7.35;;;2.13;;
79241;SDS011;68670;48.720;9.118;2023-10-08T10:51:47;8.40;;;2.40;;
79241;SDS011;68670;48.720;9.118;2023-10-08T10:54:15;7.72;;;2.60;;
79241;SDS011;68670;48.720;9.118;2023-10-08T10:56:49;6.28;;;2.20;;
79241;SDS011;68670;48.720;9.118;2023-10-08T10:59:30;8.13;;;1.90;;
79241;SDS011;68670;48.720;9.118;2023-10-08T11:02:05;9.23;;;2.92;;
79241;SDS011;68670;48.720;9.118;2023-10-08T11:04:31;8.27;;;2.15;;
79241;SDS011;68670;48.720;9.118;2023-10-08T11:06:57;9.80;;;2.50;;
79241;SDS011;68670;48.720;9.118;2023-10-08T11:09:27;6.45;;;2.30;;
79241;SDS011;68670;48.720;9.118;2023-10-08T11:12:03;5.85;;;2.28;;
79241;SDS011;68670;48.720;9.118;2023-10-08T11:14:36;6.57;;;2.08;;
79241;SDS011;68670;48.720;9.118;2023-10-08T11:17:17;7.28;;;2.13;;
79241;SDS011;68670;48.720;9.118;2023-10-08T11:19:47;8.75;;;2.67;;
79241;SDS011;68670;48.720;9.118;2023-10-08T11:22:13;8.82;;;2.40;;
79241;SDS011;68670;48.720;9.118;2023-10-08T11:24:47;10.65;;;2.53;;
79241;SDS011;68670;48.720;9.118;2023-10-08T11:27:14;7.45;;;2.15;;
79241;SDS011;68670;48.720;9.118;2023-10-08T11:29:42;7.15;;;2.38;;
79241;SDS011;68670;48.720;9.118;2023-10-08T11:32:21;5.75;;;2.10;;
79241;SDS011;68670;48.720;9.118;2023-10-08T11:34:59;7.18;;;2.15;;
79241;SDS011;68670;48.720;9.118;2023-10-08T11:37:31;9.43;;;2.53;;
79241;SDS011;68670;48.720;9.118;2023-10-08T11:40:01;8.15;;;2.67;;
79241;SDS011;68670;48.720;9.118;2023-10-08T11:42:42;8.68;;;2.42;;
79241;SDS011;68670;48.720;9.118;2023-10-08T11:45:09;10.10;;;2.35;;
79241;SDS011;68670;48.720;9.118;2023-10-08T11:47:51;9.63;;;2.20;;
79241;SDS011;68670;48.720;9.118;2023-10-08T11:50:27;11.77;;;5.43;;
79241;SDS011;68670;48.720;9.118;2023-10-08T11:53:02;16.27;;;8.98;;
79241;SDS011;68670;48.720;9.118;2023-10-08T11:55:28;10.55;;;4.20;;
79241;SDS011;68670;48.720;9.118;2023-10-08T11:58:00;12.32;;;4.22;;
79241;SDS011;68670;48.720;9.118;2023-10-08T12:00:25;8.18;;;2.80;;
79241;SDS011;68670;48.720;9.118;2023-10-08T12:02:51;5.95;;;2.08;;
79241;SDS011;68670;48.720;9.118;2023-10-08T12:05:21;5.20;;;2.13;;
79241;SDS011;68670;48.720;9.118;2023-10-08T12:07:51;13.80;;;5.07;;
79241;SDS011;68670;48.720;9.118;2023-10-08T12:10:18;12.85;;;5.43;;
79241;SDS011;68670;48.720;9.118;2023-10-08T12:12:50;8.95;;;3.35;;
79241;SDS011;68670;48.720;9.118;2023-10-08T12:15:19;9.27;;;2.58;;
79241;SDS011;68670;48.720;9.118;2023-10-08T12:17:48;7.00;;;2.35;;
79241;SDS011;68670;48.720;9.118;2023-10-08T12:20:42;6.82;;;2.70;;
79241;SDS011;68670;48.720;9.118;2023-10-08T12:23:09;12.73;;;2.58;;
79241;SDS011;68670;48.720;9.118;2023-10-08T12:25:58;8.13;;;2.47;;
79241;SDS011;68670;48.720;9.118;2023-10-08T12:28:25;8.13;;;2.47;;
79241;SDS011;68670;48.720;9.118;2023-10-08T12:30:51;7.90;;;2.08;;
79241;SDS011;68670;48.720;9.118;2023-10-08T12:33:23;11.63;;;2.67;;
79241;SDS011;68670;48.720;9.118;2023-10-08T12:35:49;8.52;;;2.45;;
79241;SDS011;68670;48.720;9.118;2023-10-08T12:38:20;9.05;;;2.80;;
79241;SDS011;68670;48.720;9.118;2023-10-08T12:40:50;8.80;;;2.80;;
79241;SDS011;68670;48.720;9.118;2023-10-08T12:43:18;10.43;;;2.50;;
79241;SDS011;68670;48.720;9.118;2023-10-08T12:45:47;9.77;;;2.75;;
79241;SDS011;68670;48.720;9.118;2023-10-08T12:48:35;9.18;;;2.33;;
79241;SDS011;68670;48.720;9.118;2023-10-08T12:51:00;9.23;;;2.58;;
79241;SDS011;68670;48.720;9.118;2023-10-08T12:53:26;10.73;;;3.17;;
79241;SDS011;68670;48.720;9.118;2023-10-08T12:55:59;14.10;;;3.10;;
79241;SDS011;68670;48.720;9.118;2023-10-08T12:58:46;10.52;;;3.00;;
79241;SDS011;68670;48.720;9.118;2023-10-08T13:01:15;13.25;;;2.95;;
79241;SDS011;68670;48.720;9.118;2023-10-08T13:03:42;8.70;;;2.78;;
79241;SDS011;68670;48.720;9.118;2023-10-08T13:06:19;11.05;;;3.42;;
79241;SDS011;68670;48.720;9.118;2023-10-08T13:08:50;8.20;;;2.85;;
79241;SDS011;68670;48.720;9.118;2023-10-08T13:11:17;13.57;;;3.55;;
79241;SDS011;68670;48.720;9.118;2023-10-08T13:13:52;11.70;;;3.33;;
79241;SDS011;68670;48.720;9.118;2023-10-08T13:16:24;14.75;;;3.05;;
79241;SDS011;68670;48.720;9.118;2023-10-08T13:18:56;14.43;;;3.05;;
79241;SDS011;68670;48.720;9.118;2023-10-08T13:21:26;13.95;;;2.92;;
79241;SDS011;68670;48.720;9.118;2023-10-08T13:23:53;13.48;;;3.00;;
79241;SDS011;68670;48.720;9.118;2023-10-08T13:26:24;13.23;;;2.92;;
79241;SDS011;68670;48.720;9.118;2023-10-08T13:28:54;10.00;;;2.58;;
79241;SDS011;68670;48.720;9.118;2023-10-08T13:31:19;14.53;;;2.60;;
79241;SDS011;68670;48.720;9.118;2023-10-08T13:33:44;12.05;;;2.67;;
79241;SDS011;68670;48.720;9.118;2023-10-08T13:36:14;15.70;;;2.88;;
79241;SDS011;68670;48.720;9.118;2023-10-08T13:41:17;14.18;;;2.80;;
79241;SDS011;68670;48.720;9.118;2023-10-08T13:43:45;16.00;;;2.75;;
79241;SDS011;68670;48.720;9.118;2023-10-08T13:46:19;11.05;;;2.92;;
79241;SDS011;68670;48.720;9.118;2023-10-08T13:48:48;11.35;;;2.40;;
79241;SDS011;68670;48.720;9.118;2023-10-08T13:51:14;15.70;;;2.75;;
79241;SDS011;68670;48.720;9.118;2023-10-08T13:53:52;11.98;;;3.03;;
79241;SDS011;68670;48.720;9.118;2023-10-08T13:56:19;15.40;;;2.63;;
79241;SDS011;68670;48.720;9.118;2023-10-08T13:58:54;13.30;;;2.72;;
79241;SDS011;68670;48.720;9.118;2023-10-08T14:01:32;15.57;;;2.40;;
79241;SDS011;68670;48.720;9.118;2023-10-08T14:04:02;10.82;;;2.30;;
79241;SDS011;68670;48.720;9.118;2023-10-08T14:06:31;12.88;;;2.70;;
79241;SDS011;68670;48.720;9.118;2023-10-08T14:08:57;14.75;;;2.60;;
79241;SDS011;68670;48.720;9.118;2023-10-08T14:11:25;11.63;;;2.60;;
79241;SDS011;68670;48.720;9.118;2023-10-08T14:13:55;11.13;;;2.30;;
79241;SDS011;68670;48.720;9.118;2023-10-08T14:16:24;11.60;;;2.42;;
79241;SDS011;68670;48.720;9.118;2023-10-08T14:18:53;15.43;;;2.88;;
79241;SDS011;68670;48.720;9.118;2023-10-08T14:21:25;8.98;;;2.17;;
79241;SDS011;68670;48.720;9.118;2023-10-08T14:23:58;13.43;;;3.03;;
79241;SDS011;68670;48.720;9.118;2023-10-08T14:26:28;8.52;;;2.28;;
79241;SDS011;68670;48.720;9.118;2023-10-08T14:29:01;12.73;;;2.63;;
79241;SDS011;68670;48.720;9.118;2023-10-08T14:31:33;12.70;;;2.75;;
79241;SDS011;68670;48.720;9.118;2023-10-08T14:34:03;12.95;;;2.20;;
79241;SDS011;68670;48.720;9.118;2023-10-08T14:36:41;11.65;;;2.50;;
79241;SDS011;68670;48.720;9.118;2023-10-08T14:39:32;12.40;;;2.60;;
79241;SDS011;68670;48.720;9.118;2023-10-08T14:42:17;11.85;;;2.67;;
79241;SDS011;68670;48.720;9.118;2023-10-08T14:45:02;12.10;;;2.42;;
79241;SDS011;68670;48.720;9.118;2023-10-08T14:47:35;13.23;;;2.60;;
79241;SDS011;68670;48.720;9.118;2023-10-08T14:50:00;10.47;;;2.80;;
79241;SDS011;68670;48.720;9.118;2023-10-08T14:52:30;12.68;;;2.50;;
79241;SDS011;68670;48.720;9.118;2023-10-08T14:54:58;8.68;;;2.50;;
79241;SDS011;68670;48.720;9.118;2023-10-08T14:57:24;13.40;;;2.70;;
79241;SDS011;68670;48.720;9.118;2023-10-08T14:59:51;12.02;;;2.70;;
79241;SDS011;68670;48.720;9.118;2023-10-08T15:02:17;15.85;;;3.03;;
79241;SDS011;68670;48.720;9.118;2023-10-08T15:04:42;11.75;;;3.00;;
79241;SDS011;68670;48.720;9.118;2023-10-08T15:07:09;13.18;;;3.47;;
79241;SDS011;68670;48.720;9.118;2023-10-08T15:09:36;9.30;;;2.72;;
79241;SDS011;68670;48.720;9.118;2023-10-08T15:12:04;9.30;;;2.50;;
79241;SDS011;68670;48.720;9.118;2023-10-08T15:14:31;9.82;;;2.70;;
79241;SDS011;68670;48.720;9.118;2023-10-08T15:16:56;8.13;;;2.40;;
79241;SDS011;68670;48.720;9.118;2023-10-08T15:19:22;10.55;;;2.50;;
79241;SDS011;68670;48.720;9.118;2023-10-08T15:21:48;8.43;;;2.70;;